sensor_id;sensor_type;location;lat;lon;timestamp;temperature;humidity
5276;DHT22;2661;50.786;12.728;2022-09-20T00:00:50;9.70;99.90
5276;DHT22;2661;50.786;12.728;2022-09-20T00:03:17;9.70;99.90
5276;DHT22;2661;50.786;12.728;2022-09-20T00:05:44;9.70;99.90
5276;DHT22;2661;50.786;12.728;2022-09-20T00:08:13;9.70;99.90
5276;DHT22;2661;50.786;12.728;2022-09-20T00:10:40;9.70;99.90
5276;DHT22;2661;50.786;12.728;2022-09-20T00:13:10;9.70;99.90
5276;DHT22;2661;50.786;12.728;2022-09-20T00:15:40;9.70;99.90
5276;DHT22;2661;50.786;12.728;2022-09-20T00:18:08;9.70;99.90
5276;DHT22;2661;50.786;12.728;2022-09-20T00:20:34;9.60;99.90
5276;DHT22;2661;50.786;12.728;2022-09-20T00:23:01;9.70;99.90
5276;DHT22;2661;50.786;12.728;2022-09-20T00:25:28;9.70;99.90
5276;DHT22;2661;50.786;12.728;2022-09-20T00:27:55;9.70;99.90
5276;DHT22;2661;50.786;12.728;2022-09-20T00:30:21;9.70;99.90
5276;DHT22;2661;50.786;12.728;2022-09-20T00:32:49;9.70;99.90
5276;DHT22;2661;50.786;12.728;2022-09-20T00:35:15;9.70;99.90
5276;DHT22;2661;50.786;12.728;2022-09-20T00:37:42;9.70;99.90
5276;DHT22;2661;50.786;12.728;2022-09-20T00:40:11;9.70;99.90
5276;DHT22;2661;50.786;12.728;2022-09-20T00:42:38;9.70;99.90
5276;DHT22;2661;50.786;12.728;2022-09-20T00:45:06;9.70;99.90
5276;DHT22;2661;50.786;12.728;2022-09-20T00:52:33;9.70;99.90
5276;DHT22;2661;50.786;12.728;2022-09-20T00:55:01;9.70;99.90
5276;DHT22;2661;50.786;12.728;2022-09-20T00:57:29;9.60;99.90
5276;DHT22;2661;50.786;12.728;2022-09-20T01:00:04;9.60;99.90
5276;DHT22;2661;50.786;12.728;2022-09-20T01:02:32;9.70;99.90
5276;DHT22;2661;50.786;12.728;2022-09-20T01:05:01;9.70;99.90
5276;DHT22;2661;50.786;12.728;2022-09-20T01:07:27;9.70;99.90
5276;DHT22;2661;50.786;12.728;2022-09-20T01:09:55;9.70;99.90
5276;DHT22;2661;50.786;12.728;2022-09-20T01:12:23;9.70;99.90
5276;DHT22;2661;50.786;12.728;2022-09-20T01:14:51;9.60;99.90
5276;DHT22;2661;50.786;12.728;2022-09-20T01:17:18;9.70;99.90
5276;DHT22;2661;50.786;12.728;2022-09-20T01:22:27;9.70;99.90
5276;DHT22;2661;50.786;12.728;2022-09-20T01:25:02;9.60;99.90
5276;DHT22;2661;50.786;12.728;2022-09-20T01:30:05;9.60;99.90
5276;DHT22;2661;50.786;12.728;2022-09-20T01:32:44;9.60;99.90
5276;DHT22;2661;50.786;12.728;2022-09-20T01:35:12;9.60;99.90
5276;DHT22;2661;50.786;12.728;2022-09-20T01:37:46;9.70;99.90
5276;DHT22;2661;50.786;12.728;2022-09-20T01:40:19;9.60;99.90
5276;DHT22;2661;50.786;12.728;2022-09-20T01:42:55;9.60;99.90
5276;DHT22;2661;50.786;12.728;2022-09-20T01:45:28;9.60;99.90
5276;DHT22;2661;50.786;12.728;2022-09-20T01:48:02;9.60;99.30
5276;DHT22;2661;50.786;12.728;2022-09-20T01:58:08;9.60;31.30
5276;DHT22;2661;50.786;12.728;2022-09-20T02:01:03;9.60;1.00
5276;DHT22;2661;50.786;12.728;2022-09-20T02:06:45;9.50;90.50
5276;DHT22;2661;50.786;12.728;2022-09-20T02:14:37;9.30;95.30
5276;DHT22;2661;50.786;12.728;2022-09-20T02:17:12;9.30;99.90
5276;DHT22;2661;50.786;12.728;2022-09-20T02:32:20;9.40;99.90
5276;DHT22;2661;50.786;12.728;2022-09-20T02:34:55;9.40;99.90
5276;DHT22;2661;50.786;12.728;2022-09-20T02:47:59;9.30;1.00
5276;DHT22;2661;50.786;12.728;2022-09-20T02:50:41;9.30;1.00
5276;DHT22;2661;50.786;12.728;2022-09-20T02:55:48;9.20;1.00
5276;DHT22;2661;50.786;12.728;2022-09-20T03:01:12;9.20;1.00
5276;DHT22;2661;50.786;12.728;2022-09-20T03:09:24;9.10;1.00
5276;DHT22;2661;50.786;12.728;2022-09-20T03:14:23;9.10;1.00
5276;DHT22;2661;50.786;12.728;2022-09-20T03:19:49;9.20;1.00
5276;DHT22;2661;50.786;12.728;2022-09-20T03:27:31;9.10;35.50
5276;DHT22;2661;50.786;12.728;2022-09-20T03:33:02;9.10;45.00
5276;DHT22;2661;50.786;12.728;2022-09-20T03:45:46;9.10;4.90
5276;DHT22;2661;50.786;12.728;2022-09-20T03:48:26;9.20;1.00
5276;DHT22;2661;50.786;12.728;2022-09-20T03:50:59;9.20;1.00
5276;DHT22;2661;50.786;12.728;2022-09-20T04:04:18;9.20;1.00
5276;DHT22;2661;50.786;12.728;2022-09-20T04:06:56;9.20;1.00
5276;DHT22;2661;50.786;12.728;2022-09-20T04:17:14;9.10;1.00
5276;DHT22;2661;50.786;12.728;2022-09-20T04:19:45;9.20;1.00
5276;DHT22;2661;50.786;12.728;2022-09-20T04:22:14;9.20;1.00
5276;DHT22;2661;50.786;12.728;2022-09-20T04:27:42;9.20;1.00
5276;DHT22;2661;50.786;12.728;2022-09-20T04:38:21;9.10;1.00
5276;DHT22;2661;50.786;12.728;2022-09-20T04:45:58;9.10;1.00
5276;DHT22;2661;50.786;12.728;2022-09-20T05:06:35;9.20;1.00
5276;DHT22;2661;50.786;12.728;2022-09-20T05:14:44;9.20;99.90
5276;DHT22;2661;50.786;12.728;2022-09-20T05:17:18;9.20;99.90
5276;DHT22;2661;50.786;12.728;2022-09-20T05:28:05;9.20;99.90
5276;DHT22;2661;50.786;12.728;2022-09-20T05:30:46;9.20;99.90
5276;DHT22;2661;50.786;12.728;2022-09-20T05:33:25;9.20;99.90
5276;DHT22;2661;50.786;12.728;2022-09-20T05:36:10;9.30;99.90
5276;DHT22;2661;50.786;12.728;2022-09-20T05:38:49;9.30;99.90
5276;DHT22;2661;50.786;12.728;2022-09-20T05:46:52;9.40;99.90
5276;DHT22;2661;50.786;12.728;2022-09-20T05:52:02;9.60;1.00
5276;DHT22;2661;50.786;12.728;2022-09-20T05:54:41;9.60;1.00
5276;DHT22;2661;50.786;12.728;2022-09-20T06:02:26;9.80;99.90
5276;DHT22;2661;50.786;12.728;2022-09-20T06:05:14;9.80;1.00
5276;DHT22;2661;50.786;12.728;2022-09-20T06:10:25;10.00;1.00
5276;DHT22;2661;50.786;12.728;2022-09-20T06:13:12;10.00;1.00
5276;DHT22;2661;50.786;12.728;2022-09-20T06:15:47;9.90;1.00
5276;DHT22;2661;50.786;12.728;2022-09-20T06:18:19;9.90;1.00
5276;DHT22;2661;50.786;12.728;2022-09-20T06:23:34;9.90;1.00
5276;DHT22;2661;50.786;12.728;2022-09-20T06:26:02;10.00;1.00
5276;DHT22;2661;50.786;12.728;2022-09-20T06:28:38;9.90;1.00
5276;DHT22;2661;50.786;12.728;2022-09-20T06:31:06;9.90;99.90
5276;DHT22;2661;50.786;12.728;2022-09-20T06:33:41;9.90;47.40
5276;DHT22;2661;50.786;12.728;2022-09-20T06:36:21;9.90;1.00
5276;DHT22;2661;50.786;12.728;2022-09-20T06:42:00;9.90;99.90
5276;DHT22;2661;50.786;12.728;2022-09-20T06:44:27;9.80;99.90
5276;DHT22;2661;50.786;12.728;2022-09-20T06:46:53;9.80;99.90
5276;DHT22;2661;50.786;12.728;2022-09-20T06:49:20;9.80;99.90
5276;DHT22;2661;50.786;12.728;2022-09-20T06:51:47;9.80;99.90
5276;DHT22;2661;50.786;12.728;2022-09-20T06:54:18;9.80;1.00
5276;DHT22;2661;50.786;12.728;2022-09-20T06:56:46;9.80;1.00
5276;DHT22;2661;50.786;12.728;2022-09-20T06:59:13;9.90;1.00
5276;DHT22;2661;50.786;12.728;2022-09-20T07:01:40;10.00;49.60
5276;DHT22;2661;50.786;12.728;2022-09-20T07:04:07;10.00;1.00
5276;DHT22;2661;50.786;12.728;2022-09-20T07:06:35;10.00;1.00
5276;DHT22;2661;50.786;12.728;2022-09-20T07:09:02;10.20;1.00
5276;DHT22;2661;50.786;12.728;2022-09-20T07:11:28;10.20;1.00
5276;DHT22;2661;50.786;12.728;2022-09-20T07:13:58;10.30;1.00
5276;DHT22;2661;50.786;12.728;2022-09-20T07:16:24;10.30;1.00
5276;DHT22;2661;50.786;12.728;2022-09-20T07:18:52;10.30;99.90
5276;DHT22;2661;50.786;12.728;2022-09-20T07:21:19;10.40;99.90
5276;DHT22;2661;50.786;12.728;2022-09-20T07:23:46;10.40;99.90
5276;DHT22;2661;50.786;12.728;2022-09-20T07:26:20;10.40;99.90
5276;DHT22;2661;50.786;12.728;2022-09-20T07:28:48;10.40;1.00
5276;DHT22;2661;50.786;12.728;2022-09-20T07:31:16;10.30;1.00
5276;DHT22;2661;50.786;12.728;2022-09-20T07:33:43;10.20;1.00
5276;DHT22;2661;50.786;12.728;2022-09-20T07:36:10;10.10;99.90
5276;DHT22;2661;50.786;12.728;2022-09-20T07:38:40;10.00;1.00
5276;DHT22;2661;50.786;12.728;2022-09-20T07:41:07;9.90;99.90
5276;DHT22;2661;50.786;12.728;2022-09-20T07:43:35;9.80;1.00
5276;DHT22;2661;50.786;12.728;2022-09-20T07:46:02;9.60;1.00
5276;DHT22;2661;50.786;12.728;2022-09-20T07:48:30;9.50;49.60
5276;DHT22;2661;50.786;12.728;2022-09-20T07:51:04;9.50;99.90
5276;DHT22;2661;50.786;12.728;2022-09-20T07:53:34;9.60;1.00
5276;DHT22;2661;50.786;12.728;2022-09-20T07:56:09;9.60;99.90
5276;DHT22;2661;50.786;12.728;2022-09-20T07:58:36;9.70;1.00
5276;DHT22;2661;50.786;12.728;2022-09-20T08:01:04;9.90;99.90
5276;DHT22;2661;50.786;12.728;2022-09-20T08:03:31;9.90;1.00
5276;DHT22;2661;50.786;12.728;2022-09-20T08:05:59;9.90;99.90
5276;DHT22;2661;50.786;12.728;2022-09-20T08:08:25;10.00;99.90
5276;DHT22;2661;50.786;12.728;2022-09-20T08:10:52;10.10;1.00
5276;DHT22;2661;50.786;12.728;2022-09-20T08:13:21;10.30;99.90
5276;DHT22;2661;50.786;12.728;2022-09-20T08:16:08;10.30;99.90
5276;DHT22;2661;50.786;12.728;2022-09-20T08:18:36;10.30;1.00
5276;DHT22;2661;50.786;12.728;2022-09-20T08:23:38;10.20;99.90
5276;DHT22;2661;50.786;12.728;2022-09-20T08:26:07;10.20;1.00
5276;DHT22;2661;50.786;12.728;2022-09-20T08:28:34;10.40;1.00
5276;DHT22;2661;50.786;12.728;2022-09-20T08:31:08;10.50;1.00
5276;DHT22;2661;50.786;12.728;2022-09-20T08:33:35;10.50;99.90
5276;DHT22;2661;50.786;12.728;2022-09-20T08:36:12;10.60;99.90
5276;DHT22;2661;50.786;12.728;2022-09-20T08:38:38;10.50;99.90
5276;DHT22;2661;50.786;12.728;2022-09-20T08:41:26;10.40;99.90
5276;DHT22;2661;50.786;12.728;2022-09-20T08:44:00;10.40;99.90
5276;DHT22;2661;50.786;12.728;2022-09-20T08:46:29;10.60;1.00
5276;DHT22;2661;50.786;12.728;2022-09-20T08:48:59;10.80;1.00
5276;DHT22;2661;50.786;12.728;2022-09-20T08:51:31;10.90;99.90
5276;DHT22;2661;50.786;12.728;2022-09-20T08:53:58;11.10;99.90
5276;DHT22;2661;50.786;12.728;2022-09-20T08:56:28;11.10;99.90
5276;DHT22;2661;50.786;12.728;2022-09-20T08:58:56;11.00;99.90
5276;DHT22;2661;50.786;12.728;2022-09-20T09:01:26;10.90;99.90
5276;DHT22;2661;50.786;12.728;2022-09-20T09:04:01;10.80;99.90
5276;DHT22;2661;50.786;12.728;2022-09-20T09:06:32;10.70;99.90
5276;DHT22;2661;50.786;12.728;2022-09-20T09:08:59;10.60;99.90
5276;DHT22;2661;50.786;12.728;2022-09-20T09:11:26;10.60;99.90
5276;DHT22;2661;50.786;12.728;2022-09-20T09:14:04;10.60;99.90
5276;DHT22;2661;50.786;12.728;2022-09-20T09:16:52;10.60;99.90
5276;DHT22;2661;50.786;12.728;2022-09-20T09:19:30;10.70;99.90
5276;DHT22;2661;50.786;12.728;2022-09-20T09:21:59;10.70;99.90
5276;DHT22;2661;50.786;12.728;2022-09-20T09:24:28;10.70;99.90
5276;DHT22;2661;50.786;12.728;2022-09-20T09:27:16;10.80;99.90
5276;DHT22;2661;50.786;12.728;2022-09-20T09:29:53;10.90;99.90
5276;DHT22;2661;50.786;12.728;2022-09-20T09:32:24;11.00;99.90
5276;DHT22;2661;50.786;12.728;2022-09-20T09:34:54;10.90;99.90
5276;DHT22;2661;50.786;12.728;2022-09-20T09:37:24;10.90;99.90
5276;DHT22;2661;50.786;12.728;2022-09-20T09:40:08;10.80;99.90
5276;DHT22;2661;50.786;12.728;2022-09-20T09:42:44;10.80;99.90
5276;DHT22;2661;50.786;12.728;2022-09-20T09:45:22;11.00;99.90
5276;DHT22;2661;50.786;12.728;2022-09-20T09:47:51;11.10;99.90
5276;DHT22;2661;50.786;12.728;2022-09-20T09:50:20;11.20;99.90
5276;DHT22;2661;50.786;12.728;2022-09-20T09:52:57;11.20;99.90
5276;DHT22;2661;50.786;12.728;2022-09-20T09:55:26;11.30;99.90
5276;DHT22;2661;50.786;12.728;2022-09-20T09:57:59;11.30;99.90
5276;DHT22;2661;50.786;12.728;2022-09-20T10:00:32;11.30;99.90
5276;DHT22;2661;50.786;12.728;2022-09-20T10:08:12;10.80;99.90
5276;DHT22;2661;50.786;12.728;2022-09-20T10:15:51;11.10;99.90
5276;DHT22;2661;50.786;12.728;2022-09-20T10:23:33;11.60;99.90
5276;DHT22;2661;50.786;12.728;2022-09-20T10:26:30;11.60;99.90
5276;DHT22;2661;50.786;12.728;2022-09-20T10:34:14;11.80;99.90
5276;DHT22;2661;50.786;12.728;2022-09-20T10:36:58;11.70;99.90
5276;DHT22;2661;50.786;12.728;2022-09-20T10:47:42;11.30;99.90
5276;DHT22;2661;50.786;12.728;2022-09-20T10:52:48;11.60;99.90
5276;DHT22;2661;50.786;12.728;2022-09-20T10:55:26;11.70;99.90
5276;DHT22;2661;50.786;12.728;2022-09-20T11:00:58;11.90;99.90
5276;DHT22;2661;50.786;12.728;2022-09-20T11:03:38;11.60;99.90
5276;DHT22;2661;50.786;12.728;2022-09-20T11:08:38;11.40;98.70
5276;DHT22;2661;50.786;12.728;2022-09-20T11:11:07;11.40;99.90
5276;DHT22;2661;50.786;12.728;2022-09-20T11:16:21;11.60;99.90
5276;DHT22;2661;50.786;12.728;2022-09-20T11:18:53;11.90;99.90
5276;DHT22;2661;50.786;12.728;2022-09-20T11:21:26;12.20;99.90
5276;DHT22;2661;50.786;12.728;2022-09-20T11:24:04;12.20;99.90
5276;DHT22;2661;50.786;12.728;2022-09-20T11:26:36;12.30;99.90
5276;DHT22;2661;50.786;12.728;2022-09-20T11:29:19;12.30;99.90
5276;DHT22;2661;50.786;12.728;2022-09-20T11:31:47;12.40;99.90
5276;DHT22;2661;50.786;12.728;2022-09-20T11:34:20;12.40;99.90
5276;DHT22;2661;50.786;12.728;2022-09-20T11:36:55;12.50;99.90
5276;DHT22;2661;50.786;12.728;2022-09-20T11:39:29;12.60;99.90
5276;DHT22;2661;50.786;12.728;2022-09-20T11:41:59;12.60;99.90
5276;DHT22;2661;50.786;12.728;2022-09-20T11:44:27;12.40;99.90
5276;DHT22;2661;50.786;12.728;2022-09-20T11:47:04;12.30;99.90
5276;DHT22;2661;50.786;12.728;2022-09-20T11:57:05;11.70;99.90
5276;DHT22;2661;50.786;12.728;2022-09-20T11:59:34;11.40;99.90
5276;DHT22;2661;50.786;12.728;2022-09-20T12:02:03;11.10;99.90
5276;DHT22;2661;50.786;12.728;2022-09-20T12:04:31;10.90;99.90
5276;DHT22;2661;50.786;12.728;2022-09-20T12:07:01;10.90;99.90
5276;DHT22;2661;50.786;12.728;2022-09-20T12:09:37;10.80;99.90
5276;DHT22;2661;50.786;12.728;2022-09-20T12:15:03;10.80;99.90
5276;DHT22;2661;50.786;12.728;2022-09-20T12:28:31;11.20;95.60
5276;DHT22;2661;50.786;12.728;2022-09-20T12:33:55;11.40;85.60
5276;DHT22;2661;50.786;12.728;2022-09-20T12:36:22;11.40;99.90
5276;DHT22;2661;50.786;12.728;2022-09-20T12:38:56;11.50;99.90
5276;DHT22;2661;50.786;12.728;2022-09-20T12:41:24;11.50;99.90
5276;DHT22;2661;50.786;12.728;2022-09-20T12:43:58;11.50;99.90
5276;DHT22;2661;50.786;12.728;2022-09-20T12:46:37;11.60;99.90
5276;DHT22;2661;50.786;12.728;2022-09-20T12:52:22;11.70;95.40
5276;DHT22;2661;50.786;12.728;2022-09-20T12:55:09;11.80;99.90
5276;DHT22;2661;50.786;12.728;2022-09-20T12:57:37;11.90;99.90
5276;DHT22;2661;50.786;12.728;2022-09-20T13:00:05;11.90;99.90
5276;DHT22;2661;50.786;12.728;2022-09-20T13:05:35;11.80;99.90
5276;DHT22;2661;50.786;12.728;2022-09-20T13:08:08;11.90;88.10
5276;DHT22;2661;50.786;12.728;2022-09-20T13:10:43;11.90;87.40
5276;DHT22;2661;50.786;12.728;2022-09-20T13:13:15;11.90;99.90
5276;DHT22;2661;50.786;12.728;2022-09-20T13:15:49;11.90;93.20
5276;DHT22;2661;50.786;12.728;2022-09-20T13:18:17;11.90;99.90
5276;DHT22;2661;50.786;12.728;2022-09-20T13:20:44;11.80;99.90
5276;DHT22;2661;50.786;12.728;2022-09-20T13:23:16;11.70;99.90
5276;DHT22;2661;50.786;12.728;2022-09-20T13:25:44;11.70;99.90
5276;DHT22;2661;50.786;12.728;2022-09-20T13:28:23;11.80;99.90
5276;DHT22;2661;50.786;12.728;2022-09-20T13:31:14;11.80;99.90
5276;DHT22;2661;50.786;12.728;2022-09-20T13:33:38;11.80;99.90
5276;DHT22;2661;50.786;12.728;2022-09-20T13:36:05;12.00;99.90
5276;DHT22;2661;50.786;12.728;2022-09-20T13:38:32;12.00;99.90
5276;DHT22;2661;50.786;12.728;2022-09-20T13:41:09;12.00;99.90
5276;DHT22;2661;50.786;12.728;2022-09-20T13:43:39;12.10;99.90
5276;DHT22;2661;50.786;12.728;2022-09-20T13:46:14;12.10;99.90
5276;DHT22;2661;50.786;12.728;2022-09-20T13:48:47;12.10;99.90
5276;DHT22;2661;50.786;12.728;2022-09-20T13:51:23;12.10;99.90
5276;DHT22;2661;50.786;12.728;2022-09-20T13:53:51;12.10;96.30
5276;DHT22;2661;50.786;12.728;2022-09-20T13:56:27;12.00;99.90
5276;DHT22;2661;50.786;12.728;2022-09-20T13:58:55;12.10;99.90
5276;DHT22;2661;50.786;12.728;2022-09-20T14:03:51;12.20;99.90
5276;DHT22;2661;50.786;12.728;2022-09-20T14:06:22;12.10;99.90
5276;DHT22;2661;50.786;12.728;2022-09-20T14:08:52;12.30;99.90
5276;DHT22;2661;50.786;12.728;2022-09-20T14:11:23;12.30;99.90
5276;DHT22;2661;50.786;12.728;2022-09-20T14:13:51;12.20;99.90
5276;DHT22;2661;50.786;12.728;2022-09-20T14:16:20;12.30;99.90
5276;DHT22;2661;50.786;12.728;2022-09-20T14:18:48;12.40;99.90
5276;DHT22;2661;50.786;12.728;2022-09-20T14:21:34;12.40;99.90
5276;DHT22;2661;50.786;12.728;2022-09-20T14:24:20;12.40;99.90
5276;DHT22;2661;50.786;12.728;2022-09-20T14:26:59;12.50;99.90
5276;DHT22;2661;50.786;12.728;2022-09-20T14:29:36;12.50;99.90
5276;DHT22;2661;50.786;12.728;2022-09-20T14:32:10;12.40;69.70
5276;DHT22;2661;50.786;12.728;2022-09-20T14:34:38;12.30;99.90
5276;DHT22;2661;50.786;12.728;2022-09-20T14:37:06;12.30;99.90
5276;DHT22;2661;50.786;12.728;2022-09-20T14:39:42;12.20;99.90
5276;DHT22;2661;50.786;12.728;2022-09-20T14:42:30;12.20;99.90
5276;DHT22;2661;50.786;12.728;2022-09-20T14:44:59;12.00;99.90
5276;DHT22;2661;50.786;12.728;2022-09-20T14:47:27;11.90;99.90
5276;DHT22;2661;50.786;12.728;2022-09-20T14:49:54;11.90;99.90
5276;DHT22;2661;50.786;12.728;2022-09-20T14:55:24;11.90;99.90
5276;DHT22;2661;50.786;12.728;2022-09-20T14:57:44;12.00;99.90
5276;DHT22;2661;50.786;12.728;2022-09-20T15:00:12;12.10;99.90
5276;DHT22;2661;50.786;12.728;2022-09-20T15:02:43;12.10;99.90
5276;DHT22;2661;50.786;12.728;2022-09-20T15:05:21;12.20;99.90
5276;DHT22;2661;50.786;12.728;2022-09-20T15:07:49;12.30;99.90
5276;DHT22;2661;50.786;12.728;2022-09-20T15:10:16;12.40;99.90
5276;DHT22;2661;50.786;12.728;2022-09-20T15:12:42;12.20;99.90
5276;DHT22;2661;50.786;12.728;2022-09-20T15:18:20;12.30;99.90
5276;DHT22;2661;50.786;12.728;2022-09-20T15:20:48;12.30;99.90
5276;DHT22;2661;50.786;12.728;2022-09-20T15:23:15;12.30;99.90
5276;DHT22;2661;50.786;12.728;2022-09-20T15:25:42;12.20;99.90
5276;DHT22;2661;50.786;12.728;2022-09-20T15:28:10;12.20;99.90
5276;DHT22;2661;50.786;12.728;2022-09-20T15:30:38;12.30;99.90
5276;DHT22;2661;50.786;12.728;2022-09-20T15:33:04;12.40;99.90
5276;DHT22;2661;50.786;12.728;2022-09-20T15:35:31;12.30;99.90
5276;DHT22;2661;50.786;12.728;2022-09-20T15:37:58;12.30;99.90
5276;DHT22;2661;50.786;12.728;2022-09-20T15:40:24;12.20;99.90
5276;DHT22;2661;50.786;12.728;2022-09-20T15:42:57;12.30;99.90
5276;DHT22;2661;50.786;12.728;2022-09-20T15:45:25;12.20;99.90
5276;DHT22;2661;50.786;12.728;2022-09-20T15:47:53;12.20;99.70
5276;DHT22;2661;50.786;12.728;2022-09-20T15:50:20;12.10;99.90
5276;DHT22;2661;50.786;12.728;2022-09-20T15:52:51;12.10;99.90
5276;DHT22;2661;50.786;12.728;2022-09-20T15:55:22;12.10;99.90
5276;DHT22;2661;50.786;12.728;2022-09-20T15:57:48;12.10;98.40
5276;DHT22;2661;50.786;12.728;2022-09-20T16:00:15;12.00;99.90
5276;DHT22;2661;50.786;12.728;2022-09-20T16:02:46;12.00;99.90
5276;DHT22;2661;50.786;12.728;2022-09-20T16:05:13;12.10;99.90
5276;DHT22;2661;50.786;12.728;2022-09-20T16:07:40;12.20;99.90
5276;DHT22;2661;50.786;12.728;2022-09-20T16:10:07;12.20;99.90
5276;DHT22;2661;50.786;12.728;2022-09-20T16:12:34;12.30;99.90
5276;DHT22;2661;50.786;12.728;2022-09-20T16:15:01;12.30;99.90
5276;DHT22;2661;50.786;12.728;2022-09-20T16:17:27;12.30;99.90
5276;DHT22;2661;50.786;12.728;2022-09-20T16:20:12;12.40;99.90
5276;DHT22;2661;50.786;12.728;2022-09-20T16:22:39;12.50;99.90
5276;DHT22;2661;50.786;12.728;2022-09-20T16:25:06;12.70;99.90
5276;DHT22;2661;50.786;12.728;2022-09-20T16:27:34;12.90;99.90
5276;DHT22;2661;50.786;12.728;2022-09-20T16:30:00;13.10;99.90
5276;DHT22;2661;50.786;12.728;2022-09-20T16:32:27;13.20;99.90
5276;DHT22;2661;50.786;12.728;2022-09-20T16:34:54;13.30;99.90
5276;DHT22;2661;50.786;12.728;2022-09-20T16:37:23;13.20;99.90
5276;DHT22;2661;50.786;12.728;2022-09-20T16:39:50;13.10;99.90
5276;DHT22;2661;50.786;12.728;2022-09-20T16:42:17;13.00;99.90
5276;DHT22;2661;50.786;12.728;2022-09-20T16:44:44;12.90;99.90
5276;DHT22;2661;50.786;12.728;2022-09-20T16:47:11;12.80;99.90
5276;DHT22;2661;50.786;12.728;2022-09-20T16:49:43;12.70;99.90
5276;DHT22;2661;50.786;12.728;2022-09-20T16:52:13;12.60;99.90
5276;DHT22;2661;50.786;12.728;2022-09-20T16:54:40;12.40;99.90
5276;DHT22;2661;50.786;12.728;2022-09-20T16:57:06;12.20;99.90
5276;DHT22;2661;50.786;12.728;2022-09-20T16:59:33;12.00;99.90
5276;DHT22;2661;50.786;12.728;2022-09-20T17:02:00;11.80;99.90
5276;DHT22;2661;50.786;12.728;2022-09-20T17:04:26;11.50;99.90
5276;DHT22;2661;50.786;12.728;2022-09-20T17:06:53;11.40;99.90
5276;DHT22;2661;50.786;12.728;2022-09-20T17:09:21;11.30;99.90
5276;DHT22;2661;50.786;12.728;2022-09-20T17:11:48;11.20;99.90
5276;DHT22;2661;50.786;12.728;2022-09-20T17:14:16;11.10;99.90
5276;DHT22;2661;50.786;12.728;2022-09-20T17:16:44;11.00;92.40
5276;DHT22;2661;50.786;12.728;2022-09-20T17:19:16;11.00;99.90
5276;DHT22;2661;50.786;12.728;2022-09-20T17:21:45;10.90;99.90
5276;DHT22;2661;50.786;12.728;2022-09-20T17:24:15;10.80;99.90
5276;DHT22;2661;50.786;12.728;2022-09-20T17:26:43;10.80;99.90
5276;DHT22;2661;50.786;12.728;2022-09-20T17:29:12;10.70;99.90
5276;DHT22;2661;50.786;12.728;2022-09-20T17:31:41;10.60;93.90
5276;DHT22;2661;50.786;12.728;2022-09-20T17:34:10;10.50;99.90
5276;DHT22;2661;50.786;12.728;2022-09-20T17:36:43;10.50;96.50
5276;DHT22;2661;50.786;12.728;2022-09-20T17:39:11;10.40;99.90
5276;DHT22;2661;50.786;12.728;2022-09-20T17:41:39;10.20;99.90
5276;DHT22;2661;50.786;12.728;2022-09-20T17:44:06;10.10;99.90
5276;DHT22;2661;50.786;12.728;2022-09-20T17:46:38;10.10;99.90
5276;DHT22;2661;50.786;12.728;2022-09-20T17:49:15;10.00;43.90
5276;DHT22;2661;50.786;12.728;2022-09-20T17:51:48;9.90;99.90
5276;DHT22;2661;50.786;12.728;2022-09-20T17:54:16;9.90;99.90
5276;DHT22;2661;50.786;12.728;2022-09-20T17:56:44;9.80;99.90
5276;DHT22;2661;50.786;12.728;2022-09-20T17:59:12;9.80;99.90
5276;DHT22;2661;50.786;12.728;2022-09-20T18:01:41;9.80;99.90
5276;DHT22;2661;50.786;12.728;2022-09-20T18:04:08;9.70;99.90
5276;DHT22;2661;50.786;12.728;2022-09-20T18:06:39;9.60;99.90
5276;DHT22;2661;50.786;12.728;2022-09-20T18:09:10;9.60;99.90
5276;DHT22;2661;50.786;12.728;2022-09-20T18:11:39;9.50;99.90
5276;DHT22;2661;50.786;12.728;2022-09-20T18:14:07;9.50;99.90
5276;DHT22;2661;50.786;12.728;2022-09-20T18:16:35;9.40;99.90
5276;DHT22;2661;50.786;12.728;2022-09-20T18:19:03;9.40;99.90
5276;DHT22;2661;50.786;12.728;2022-09-20T18:21:31;9.40;99.90
5276;DHT22;2661;50.786;12.728;2022-09-20T18:23:58;9.30;99.90
5276;DHT22;2661;50.786;12.728;2022-09-20T18:26:27;9.30;99.90
5276;DHT22;2661;50.786;12.728;2022-09-20T18:31:23;9.20;99.90
5276;DHT22;2661;50.786;12.728;2022-09-20T18:33:51;9.10;99.90
5276;DHT22;2661;50.786;12.728;2022-09-20T18:36:18;9.00;99.90
5276;DHT22;2661;50.786;12.728;2022-09-20T18:38:44;9.00;99.90
5276;DHT22;2661;50.786;12.728;2022-09-20T18:41:11;8.90;99.90
5276;DHT22;2661;50.786;12.728;2022-09-20T18:43:40;8.90;99.90
5276;DHT22;2661;50.786;12.728;2022-09-20T18:46:09;8.90;99.90
5276;DHT22;2661;50.786;12.728;2022-09-20T18:48:37;8.90;99.90
5276;DHT22;2661;50.786;12.728;2022-09-20T18:51:07;8.90;99.90
5276;DHT22;2661;50.786;12.728;2022-09-20T18:53:34;8.80;99.90
5276;DHT22;2661;50.786;12.728;2022-09-20T18:56:05;8.80;99.90
5276;DHT22;2661;50.786;12.728;2022-09-20T18:58:33;8.80;99.90
5276;DHT22;2661;50.786;12.728;2022-09-20T19:06:11;8.60;99.90
5276;DHT22;2661;50.786;12.728;2022-09-20T19:08:44;8.60;99.90
5276;DHT22;2661;50.786;12.728;2022-09-20T19:11:16;8.50;99.90
5276;DHT22;2661;50.786;12.728;2022-09-20T19:14:05;8.40;99.90
5276;DHT22;2661;50.786;12.728;2022-09-20T19:16:33;8.40;99.90
5276;DHT22;2661;50.786;12.728;2022-09-20T19:21:58;8.30;99.90
5276;DHT22;2661;50.786;12.728;2022-09-20T19:24:50;8.20;99.90
5276;DHT22;2661;50.786;12.728;2022-09-20T19:27:22;8.30;99.90
5276;DHT22;2661;50.786;12.728;2022-09-20T19:29:51;8.10;99.90
5276;DHT22;2661;50.786;12.728;2022-09-20T19:32:18;8.10;99.90
5276;DHT22;2661;50.786;12.728;2022-09-20T19:34:50;8.10;99.90
5276;DHT22;2661;50.786;12.728;2022-09-20T19:45:17;8.10;99.90
5276;DHT22;2661;50.786;12.728;2022-09-20T19:50:26;8.10;99.90
5276;DHT22;2661;50.786;12.728;2022-09-20T19:52:55;8.00;99.90
5276;DHT22;2661;50.786;12.728;2022-09-20T19:55:22;8.10;99.90
5276;DHT22;2661;50.786;12.728;2022-09-20T19:57:48;8.20;99.90
5276;DHT22;2661;50.786;12.728;2022-09-20T20:00:19;8.20;99.90
5276;DHT22;2661;50.786;12.728;2022-09-20T20:02:46;8.10;99.90
5276;DHT22;2661;50.786;12.728;2022-09-20T20:05:17;8.10;99.90
5276;DHT22;2661;50.786;12.728;2022-09-20T20:07:49;8.00;99.90
5276;DHT22;2661;50.786;12.728;2022-09-20T20:10:19;8.10;99.90
5276;DHT22;2661;50.786;12.728;2022-09-20T20:12:58;8.00;99.90
5276;DHT22;2661;50.786;12.728;2022-09-20T20:15:35;8.00;99.90
5276;DHT22;2661;50.786;12.728;2022-09-20T20:20:50;8.10;99.90
5276;DHT22;2661;50.786;12.728;2022-09-20T20:28:31;8.20;99.90
5276;DHT22;2661;50.786;12.728;2022-09-20T20:30:58;8.20;99.90
5276;DHT22;2661;50.786;12.728;2022-09-20T20:33:27;8.10;99.90
5276;DHT22;2661;50.786;12.728;2022-09-20T20:35:55;8.10;99.90
5276;DHT22;2661;50.786;12.728;2022-09-20T20:38:23;8.00;99.90
5276;DHT22;2661;50.786;12.728;2022-09-20T20:41:01;8.00;99.90
5276;DHT22;2661;50.786;12.728;2022-09-20T20:43:32;8.00;99.90
5276;DHT22;2661;50.786;12.728;2022-09-20T20:46:00;8.00;99.90
5276;DHT22;2661;50.786;12.728;2022-09-20T20:48:27;8.00;99.90
5276;DHT22;2661;50.786;12.728;2022-09-20T20:51:37;7.90;99.90
5276;DHT22;2661;50.786;12.728;2022-09-20T20:53:48;8.00;99.90
5276;DHT22;2661;50.786;12.728;2022-09-20T20:56:19;8.00;99.90
5276;DHT22;2661;50.786;12.728;2022-09-20T20:58:46;8.00;99.90
5276;DHT22;2661;50.786;12.728;2022-09-20T21:03:47;7.90;99.90